Time;durP1;ratioP1;P1;durP2;ratioP2;P2;SDS_P1;SDS_P2;PMS_P1;PMS_P2;Temp;Humidity;BMP_temperature;BMP_pressure;BME280_temperature;BME280_humidity;BME280_pressure;Samples;Min_cycle;Max_cycle;Signal;HPM_P1;HPM_P2
2022/12/01 00:02:02;;;;;;;36.05;23.63;;;;;;;;;;4996245;28;20027;-74
2022/12/01 00:04:28;;;;;;;33.58;21.42;;;;;;;;;;4996684;28;20539;-75
2022/12/01 00:06:55;;;;;;;27.77;17.30;;;;;;;;;;4996447;28;20026;-76
2022/12/01 00:12:06;;;;;;;25.70;16.70;;;;;;;;;;4996716;28;20084;-77
2022/12/01 00:14:32;;;;;;;26.60;16.88;;;;;;;;;;4996171;28;20077;-74
2022/12/01 00:16:58;;;;;;;27.25;17.35;;;;;;;;;;4996296;28;20038;-75
2022/12/01 00:19:25;;;;;;;23.13;15.30;;;;;;;;;;4995985;28;20072;-75
2022/12/01 00:21:51;;;;;;;20.38;13.25;;;;;;;;;;4996304;28;20026;-75
2022/12/01 00:24:17;;;;;;;19.38;12.25;;;;;;;;;;4996189;28;20026;-76
2022/12/01 00:26:43;;;;;;;28.17;17.17;;;;;;;;;;4996002;28;20029;-72
2022/12/01 00:29:09;;;;;;;24.05;13.88;;;;;;;;;;4996239;28;20436;-74
2022/12/01 00:31:35;;;;;;;22.55;13.48;;;;;;;;;;4995667;28;20034;-75
2022/12/01 00:34:02;;;;;;;23.48;14.38;;;;;;;;;;4995952;28;20115;-75
2022/12/01 00:36:28;;;;;;;27.92;15.68;;;;;;;;;;4996104;28;20362;-72
2022/12/01 00:38:55;;;;;;;16.63;9.73;;;;;;;;;;4995880;28;20023;-72
2022/12/01 00:41:22;;;;;;;29.10;19.80;;;;;;;;;;4978508;28;20461;-72
2022/12/01 00:43:48;;;;;;;27.85;21.10;;;;;;;;;;4995593;28;20041;-71
2022/12/01 00:46:14;;;;;;;27.42;20.00;;;;;;;;;;4995667;28;20473;-73
2022/12/01 00:48:40;;;;;;;19.73;12.38;;;;;;;;;;4978062;28;20047;-73
2022/12/01 00:51:06;;;;;;;18.80;9.65;;;;;;;;;;4995602;28;20497;-75
2022/12/01 00:53:32;;;;;;;23.73;17.40;;;;;;;;;;4995574;28;20466;-72
2022/12/01 00:55:58;;;;;;;24.65;18.70;;;;;;;;;;4995541;28;20027;-72
2022/12/01 00:58:24;;;;;;;22.60;16.45;;;;;;;;;;4995517;28;20034;-75
2022/12/01 01:00:57;;;;;;;17.10;11.18;;;;;;;;;;4995145;28;20098;-72
2022/12/01 01:03:24;;;;;;;17.10;12.30;;;;;;;;;;4995613;28;20027;-73
2022/12/01 01:05:50;;;;;;;16.95;11.23;;;;;;;;;;4995376;28;20029;-72
2022/12/01 01:08:16;;;;;;;14.82;9.90;;;;;;;;;;4995457;28;20027;-75
2022/12/01 01:10:43;;;;;;;16.10;10.13;;;;;;;;;;4994922;28;20053;-73
2022/12/01 01:13:10;;;;;;;12.43;8.50;;;;;;;;;;4995267;28;20600;-73
2022/12/01 01:15:36;;;;;;;31.73;20.48;;;;;;;;;;4995270;28;20381;-72
2022/12/01 01:18:03;;;;;;;18.95;9.43;;;;;;;;;;4995047;28;20467;-72
2022/12/01 01:20:29;;;;;;;16.95;10.30;;;;;;;;;;4995200;28;20023;-76
2022/12/01 01:22:56;;;;;;;20.48;12.75;;;;;;;;;;4994844;28;20026;-75
2022/12/01 01:25:22;;;;;;;15.20;9.50;;;;;;;;;;4993714;28;20030;-72
2022/12/01 01:27:48;;;;;;;22.52;12.90;;;;;;;;;;4995155;28;20034;-73
2022/12/01 01:30:14;;;;;;;39.92;22.48;;;;;;;;;;4994788;28;20058;-73
2022/12/01 01:32:40;;;;;;;23.25;13.50;;;;;;;;;;4995234;28;20022;-76
2022/12/01 01:35:07;;;;;;;22.00;13.07;;;;;;;;;;4994686;28;20433;-73
2022/12/01 01:37:33;;;;;;;22.70;15.02;;;;;;;;;;4994862;28;20484;-72
2022/12/01 01:39:59;;;;;;;22.75;13.00;;;;;;;;;;4994920;28;20485;-75
2022/12/01 01:42:25;;;;;;;17.13;10.68;;;;;;;;;;4994776;28;20026;-73
2022/12/01 01:44:51;;;;;;;21.30;12.95;;;;;;;;;;4994779;28;20049;-73
2022/12/01 01:47:20;;;;;;;15.95;10.48;;;;;;;;;;4994443;28;20038;-73
2022/12/01 01:49:46;;;;;;;16.85;9.85;;;;;;;;;;4994625;28;20023;-73
2022/12/01 01:52:13;;;;;;;15.02;9.90;;;;;;;;;;4994431;28;20037;-72
2022/12/01 01:54:40;;;;;;;15.65;9.82;;;;;;;;;;4994806;28;20389;-72
2022/12/01 01:57:07;;;;;;;20.45;11.73;;;;;;;;;;4994137;28;20042;-72
2022/12/01 01:59:37;;;;;;;19.85;11.45;;;;;;;;;;4977081;28;20499;-72
2022/12/01 02:02:07;;;;;;;25.25;12.48;;;;;;;;;;4994000;28;20541;-72
2022/12/01 02:04:47;;;;;;;21.90;12.27;;;;;;;;;;4994317;28;20033;-73
2022/12/01 02:07:15;;;;;;;17.83;11.77;;;;;;;;;;4994161;28;20082;-72
2022/12/01 02:09:41;;;;;;;16.95;8.70;;;;;;;;;;4994199;28;20030;-75
2022/12/01 02:12:10;;;;;;;15.18;7.65;;;;;;;;;;4981013;28;20038;-72
2022/12/01 02:14:37;;;;;;;12.85;7.55;;;;;;;;;;4981132;28;20018;-72
2022/12/01 02:17:41;;;;;;;12.73;7.07;;;;;;;;;;4993955;28;20060;-73
2022/12/01 02:20:17;;;;;;;14.23;8.60;;;;;;;;;;4933962;29;20052;-75
2022/12/01 02:23:14;;;;;;;14.48;8.95;;;;;;;;;;4933559;29;20538;-75
2022/12/01 02:25:58;;;;;;;15.63;8.98;;;;;;;;;;4933867;29;20063;-72
2022/12/01 02:28:43;;;;;;;14.75;7.57;;;;;;;;;;4933981;29;20039;-72
2022/12/01 02:31:12;;;;;;;15.68;9.02;;;;;;;;;;4933967;29;20090;-73
2022/12/01 02:33:47;;;;;;;14.00;8.75;;;;;;;;;;4933634;29;20023;-72
2022/12/01 02:36:13;;;;;;;14.27;8.98;;;;;;;;;;4934070;29;20053;-73
2022/12/01 02:38:45;;;;;;;16.63;9.80;;;;;;;;;;4933635;29;20071;-72
2022/12/01 02:41:15;;;;;;;15.60;8.93;;;;;;;;;;4933809;29;20027;-73
2022/12/01 02:43:56;;;;;;;14.90;8.77;;;;;;;;;;4933654;29;20063;-72
2022/12/01 02:46:31;;;;;;;15.77;8.57;;;;;;;;;;4933707;29;20637;-72
2022/12/01 02:48:58;;;;;;;16.52;8.32;;;;;;;;;;4933726;29;20067;-72
2022/12/01 02:51:27;;;;;;;12.77;7.53;;;;;;;;;;4977004;28;20042;-75
2022/12/01 02:53:54;;;;;;;13.45;7.30;;;;;;;;;;4993472;28;20026;-72
2022/12/01 02:56:22;;;;;;;11.90;7.05;;;;;;;;;;4993489;28;20026;-72
2022/12/01 02:58:48;;;;;;;10.80;6.47;;;;;;;;;;4993866;28;20026;-74
2022/12/01 03:01:16;;;;;;;10.95;5.38;;;;;;;;;;4993170;28;20101;-72
2022/12/01 03:04:01;;;;;;;12.10;5.55;;;;;;;;;;4993298;28;20096;-72
2022/12/01 03:06:39;;;;;;;7.93;5.00;;;;;;;;;;4993402;28;20488;-75
2022/12/01 03:09:05;;;;;;;7.75;4.53;;;;;;;;;;4993285;28;20030;-72
2022/12/01 03:11:43;;;;;;;7.93;4.97;;;;;;;;;;4993923;28;20030;-72
2022/12/01 03:14:16;;;;;;;7.95;5.00;;;;;;;;;;4993092;28;20035;-72
2022/12/01 03:16:42;;;;;;;10.40;5.20;;;;;;;;;;4993245;28;20461;-72
2022/12/01 03:19:31;;;;;;;8.65;4.95;;;;;;;;;;4992988;28;20042;-72
2022/12/01 03:22:03;;;;;;;7.78;4.57;;;;;;;;;;4993288;28;20038;-72
2022/12/01 03:24:31;;;;;;;6.25;4.45;;;;;;;;;;4993341;28;20101;-73
2022/12/01 03:27:00;;;;;;;6.72;4.40;;;;;;;;;;4993211;28;20018;-72
2022/12/01 03:29:46;;;;;;;7.15;4.90;;;;;;;;;;4993139;28;20027;-72
2022/12/01 03:32:12;;;;;;;7.85;3.97;;;;;;;;;;4993654;28;20039;-72
2022/12/01 03:34:38;;;;;;;9.13;4.15;;;;;;;;;;4997092;28;20100;-75
2022/12/01 03:37:08;;;;;;;8.95;4.65;;;;;;;;;;4979391;28;20477;-72
2022/12/01 03:39:35;;;;;;;12.75;6.22;;;;;;;;;;4997005;28;20027;-74
2022/12/01 03:42:01;;;;;;;7.65;4.95;;;;;;;;;;4996829;28;20029;-75
2022/12/01 03:44:33;;;;;;;11.52;5.72;;;;;;;;;;4997047;28;20030;-72
2022/12/01 03:46:59;;;;;;;;;;;;;;;;;;4997038;28;20034;-73
2022/12/01 03:49:25;;;;;;;9.82;4.95;;;;;;;;;;4976281;28;19906;-72
2022/12/01 03:51:54;;;;;;;6.60;4.65;;;;;;;;;;4991468;28;20026;-73
2022/12/01 03:54:33;;;;;;;9.68;5.55;;;;;;;;;;4996999;28;20491;-72
2022/12/01 03:57:02;;;;;;;7.80;5.05;;;;;;;;;;4996485;28;20027;-72
2022/12/01 03:59:29;;;;;;;9.30;5.88;;;;;;;;;;4996692;28;20022;-74
2022/12/01 04:01:55;;;;;;;9.38;5.68;;;;;;;;;;4996529;28;20026;-73
2022/12/01 04:04:21;;;;;;;10.80;6.75;;;;;;;;;;4996881;28;20022;-72
2022/12/01 04:06:49;;;;;;;9.25;6.10;;;;;;;;;;4996605;28;20025;-73
2022/12/01 04:09:15;;;;;;;12.88;6.88;;;;;;;;;;4996359;28;20026;-72
2022/12/01 04:14:26;;;;;;;10.93;6.65;;;;;;;;;;4996334;28;20384;-72
2022/12/01 04:16:52;;;;;;;12.23;7.00;;;;;;;;;;4996313;28;20108;-72
2022/12/01 04:19:18;;;;;;;13.07;8.57;;;;;;;;;;4995891;28;20069;-73
2022/12/01 04:21:44;;;;;;;22.00;11.82;;;;;;;;;;4996292;28;20109;-73
2022/12/01 04:24:11;;;;;;;23.85;11.35;;;;;;;;;;4996147;28;20022;-72
2022/12/01 04:26:37;;;;;;;20.35;10.52;;;;;;;;;;4996164;28;20042;-73
2022/12/01 04:29:07;;;;;;;14.85;7.13;;;;;;;;;;4996344;28;20057;-73
2022/12/01 04:31:33;;;;;;;10.15;6.85;;;;;;;;;;4995869;28;20026;-72
2022/12/01 04:34:00;;;;;;;37.95;16.88;;;;;;;;;;4995955;28;20037;-72
2022/12/01 04:36:27;;;;;;;16.77;9.70;;;;;;;;;;4996250;28;20109;-72
2022/12/01 04:38:53;;;;;;;8.77;6.70;;;;;;;;;;4996282;28;20062;-72
2022/12/01 04:41:19;;;;;;;9.38;5.82;;;;;;;;;;4996328;28;20034;-73
2022/12/01 04:43:45;;;;;;;15.05;7.68;;;;;;;;;;4995204;28;20069;-74
2022/12/01 04:46:11;;;;;;;24.08;12.25;;;;;;;;;;4996180;28;20026;-74
2022/12/01 04:48:38;;;;;;;31.80;16.25;;;;;;;;;;4995565;28;20102;-73
2022/12/01 04:51:05;;;;;;;15.13;8.75;;;;;;;;;;4995716;28;20073;-72
2022/12/01 04:53:32;;;;;;;25.58;11.88;;;;;;;;;;4995668;28;20029;-72
2022/12/01 04:55:59;;;;;;;10.73;6.53;;;;;;;;;;4995905;28;20018;-72
2022/12/01 04:58:25;;;;;;;10.68;5.80;;;;;;;;;;4995587;28;20404;-73
2022/12/01 05:00:51;;;;;;;9.38;5.93;;;;;;;;;;4995612;28;20380;-77
2022/12/01 05:03:17;;;;;;;16.83;9.80;;;;;;;;;;4995188;28;20441;-72
2022/12/01 05:05:43;;;;;;;14.10;7.68;;;;;;;;;;4995641;28;20106;-72
2022/12/01 05:08:09;;;;;;;16.30;8.52;;;;;;;;;;4995465;28;20377;-72
2022/12/01 05:10:36;;;;;;;17.45;8.75;;;;;;;;;;4995327;28;20054;-75
2022/12/01 05:13:02;;;;;;;19.70;10.13;;;;;;;;;;4995279;28;20504;-72
2022/12/01 05:15:28;;;;;;;14.90;9.98;;;;;;;;;;4995200;28;20057;-72
2022/12/01 05:17:54;;;;;;;10.63;7.00;;;;;;;;;;4994926;28;20047;-72
2022/12/01 05:23:07;;;;;;;10.00;7.20;;;;;;;;;;4995292;28;20484;-73
2022/12/01 05:25:33;;;;;;;14.23;8.18;;;;;;;;;;4995192;28;20029;-73
2022/12/01 05:27:59;;;;;;;18.75;10.75;;;;;;;;;;4994935;28;20023;-72
2022/12/01 05:30:25;;;;;;;12.65;8.40;;;;;;;;;;4994861;28;20022;-73
2022/12/01 05:32:52;;;;;;;10.95;6.45;;;;;;;;;;4994675;28;20065;-75
2022/12/01 05:35:18;;;;;;;11.77;7.13;;;;;;;;;;4994903;28;20046;-75
2022/12/01 05:37:44;;;;;;;17.55;8.82;;;;;;;;;;4994723;28;20034;-73
2022/12/01 05:40:10;;;;;;;12.75;8.20;;;;;;;;;;4994679;28;20022;-73
2022/12/01 05:42:36;;;;;;;11.80;6.90;;;;;;;;;;4994700;28;20034;-74
2022/12/01 05:45:02;;;;;;;17.15;7.53;;;;;;;;;;4994924;28;20098;-73
2022/12/01 05:47:28;;;;;;;10.68;6.72;;;;;;;;;;4977125;28;20038;-73
2022/12/01 05:49:54;;;;;;;11.75;7.13;;;;;;;;;;4994458;28;20092;-74
2022/12/01 05:52:20;;;;;;;11.68;6.18;;;;;;;;;;4994490;28;20026;-74
2022/12/01 05:54:46;;;;;;;8.43;4.50;;;;;;;;;;4994539;28;20035;-75
2022/12/01 05:57:12;;;;;;;7.90;4.75;;;;;;;;;;4993251;28;20046;-75
2022/12/01 05:59:38;;;;;;;11.20;4.88;;;;;;;;;;4994594;28;20070;-75
2022/12/01 06:02:04;;;;;;;11.15;6.05;;;;;;;;;;4994135;28;20033;-74
2022/12/01 06:04:30;;;;;;;16.50;8.27;;;;;;;;;;4994333;28;20026;-75
2022/12/01 06:06:56;;;;;;;59.47;30.20;;;;;;;;;;4994367;28;20057;-74
2022/12/01 06:09:22;;;;;;;12.80;6.68;;;;;;;;;;4994066;28;20114;-74
2022/12/01 06:11:48;;;;;;;10.60;4.93;;;;;;;;;;4994454;28;20444;-74
2022/12/01 06:14:14;;;;;;;13.45;6.75;;;;;;;;;;4976401;28;20488;-73
2022/12/01 06:16:41;;;;;;;19.63;10.70;;;;;;;;;;4994036;28;20034;-76
2022/12/01 06:19:07;;;;;;;36.17;17.23;;;;;;;;;;4993618;28;20054;-72
2022/12/01 06:21:33;;;;;;;32.05;15.95;;;;;;;;;;4993478;28;20429;-74
2022/12/01 06:23:59;;;;;;;14.25;9.35;;;;;;;;;;4994018;28;20476;-74
2022/12/01 06:26:25;;;;;;;16.17;8.90;;;;;;;;;;4992501;28;20623;-72
2022/12/01 06:28:51;;;;;;;18.20;9.80;;;;;;;;;;4994021;28;20023;-73
2022/12/01 06:31:17;;;;;;;12.20;6.38;;;;;;;;;;4993909;28;20022;-74
2022/12/01 06:33:43;;;;;;;19.35;6.65;;;;;;;;;;4993742;28;20014;-73
2022/12/01 06:36:09;;;;;;;13.55;7.57;;;;;;;;;;4993809;28;20073;-72
2022/12/01 06:38:36;;;;;;;11.60;6.43;;;;;;;;;;4993687;28;20415;-73
2022/12/01 06:41:03;;;;;;;12.00;4.78;;;;;;;;;;4993831;28;20022;-75
2022/12/01 06:43:29;;;;;;;51.63;20.27;;;;;;;;;;4993628;28;20034;-75
2022/12/01 06:45:55;;;;;;;34.70;14.00;;;;;;;;;;4993584;28;20093;-75
2022/12/01 06:48:21;;;;;;;68.20;25.33;;;;;;;;;;4994023;28;20425;-75
2022/12/01 06:50:47;;;;;;;144.98;54.38;;;;;;;;;;4993256;28;20023;-75
2022/12/01 06:53:13;;;;;;;164.38;63.45;;;;;;;;;;4993573;28;20033;-74
2022/12/01 06:55:39;;;;;;;41.30;19.75;;;;;;;;;;4993381;28;20097;-75
2022/12/01 06:58:05;;;;;;;13.82;8.13;;;;;;;;;;4992957;28;20030;-72
2022/12/01 07:00:31;;;;;;;20.58;8.27;;;;;;;;;;4993305;28;20018;-72
2022/12/01 07:02:57;;;;;;;9.95;6.00;;;;;;;;;;4993629;28;20022;-73
2022/12/01 07:05:23;;;;;;;13.90;8.60;;;;;;;;;;4975823;28;20496;-72
2022/12/01 07:07:49;;;;;;;11.35;7.75;;;;;;;;;;4993035;28;20100;-73
2022/12/01 07:10:15;;;;;;;16.42;10.50;;;;;;;;;;4993311;28;20457;-73
2022/12/01 07:12:41;;;;;;;20.25;11.90;;;;;;;;;;4993092;28;20022;-74
2022/12/01 07:15:08;;;;;;;18.42;8.18;;;;;;;;;;4992882;28;20487;-72
2022/12/01 07:17:34;;;;;;;14.70;7.78;;;;;;;;;;4993000;28;20078;-75
2022/12/01 07:20:00;;;;;;;17.00;9.48;;;;;;;;;;4993744;28;20026;-76
2022/12/01 07:22:28;;;;;;;15.70;9.20;;;;;;;;;;4992866;28;20031;-72
2022/12/01 07:24:54;;;;;;;14.20;8.73;;;;;;;;;;4993346;28;20019;-73
2022/12/01 07:27:21;;;;;;;13.77;8.38;;;;;;;;;;4993204;28;20033;-76
2022/12/01 07:29:47;;;;;;;18.67;10.43;;;;;;;;;;4993090;28;20101;-75
2022/12/01 07:32:13;;;;;;;19.80;10.60;;;;;;;;;;4993086;28;20435;-74
2022/12/01 07:34:39;;;;;;;35.97;18.83;;;;;;;;;;4992965;28;20469;-75
2022/12/01 07:37:05;;;;;;;24.48;14.82;;;;;;;;;;4992722;28;20515;-74
2022/12/01 07:39:31;;;;;;;14.70;9.60;;;;;;;;;;4992950;28;20062;-73
2022/12/01 07:41:57;;;;;;;12.52;9.00;;;;;;;;;;4992992;28;20019;-76
2022/12/01 07:44:23;;;;;;;14.30;8.55;;;;;;;;;;4993033;28;20436;-74
2022/12/01 07:46:49;;;;;;;12.75;8.55;;;;;;;;;;4993190;28;20062;-72
2022/12/01 07:49:15;;;;;;;16.83;7.68;;;;;;;;;;4993024;28;20041;-76
2022/12/01 07:51:41;;;;;;;13.07;8.70;;;;;;;;;;4992800;28;20018;-75
2022/12/01 07:54:07;;;;;;;15.07;10.35;;;;;;;;;;4992247;28;20109;-73
2022/12/01 07:56:33;;;;;;;20.45;10.07;;;;;;;;;;4992918;28;20024;-74
2022/12/01 07:58:59;;;;;;;18.27;10.15;;;;;;;;;;4992688;28;20061;-76
2022/12/01 08:01:25;;;;;;;16.65;11.25;;;;;;;;;;4992946;28;20026;-75
2022/12/01 08:03:53;;;;;;;21.73;12.52;;;;;;;;;;4992756;28;20469;-75
2022/12/01 08:06:20;;;;;;;16.13;8.73;;;;;;;;;;4992741;28;20019;-73
2022/12/01 08:08:46;;;;;;;15.70;8.85;;;;;;;;;;4992814;28;20038;-72
2022/12/01 08:11:14;;;;;;;16.65;8.18;;;;;;;;;;4979189;28;20022;-73
2022/12/01 08:13:40;;;;;;;10.40;7.57;;;;;;;;;;4992886;28;20058;-72
2022/12/01 08:16:08;;;;;;;17.58;10.85;;;;;;;;;;4993082;28;20034;-72
2022/12/01 08:18:34;;;;;;;14.15;8.88;;;;;;;;;;4992452;28;20055;-72
2022/12/01 08:21:01;;;;;;;14.73;8.65;;;;;;;;;;4995712;28;20101;-74
2022/12/01 08:23:27;;;;;;;22.27;9.05;;;;;;;;;;4995973;28;20519;-74
2022/12/01 08:25:53;;;;;;;13.45;8.55;;;;;;;;;;4996121;28;20026;-73
2022/12/01 08:28:19;;;;;;;25.52;13.85;;;;;;;;;;4995844;28;20105;-72
2022/12/01 08:30:46;;;;;;;26.60;15.98;;;;;;;;;;4995932;28;20093;-72
2022/12/01 08:33:12;;;;;;;18.50;11.82;;;;;;;;;;4995805;28;20037;-75
2022/12/01 08:35:38;;;;;;;13.13;9.27;;;;;;;;;;4995953;28;20101;-74
2022/12/01 08:38:04;;;;;;;18.65;10.75;;;;;;;;;;4995791;28;20042;-72
2022/12/01 08:40:30;;;;;;;22.08;11.88;;;;;;;;;;4995591;28;20019;-75
2022/12/01 08:42:56;;;;;;;45.63;20.35;;;;;;;;;;4995704;28;20038;-75
2022/12/01 08:45:22;;;;;;;28.10;12.73;;;;;;;;;;4995959;28;20022;-75
2022/12/01 08:47:49;;;;;;;18.58;11.50;;;;;;;;;;4995630;28;20034;-74
2022/12/01 08:50:15;;;;;;;24.25;14.73;;;;;;;;;;4995512;28;20018;-72
2022/12/01 08:52:41;;;;;;;16.00;9.35;;;;;;;;;;4996315;28;20026;-73
2022/12/01 08:55:08;;;;;;;17.92;10.63;;;;;;;;;;4995440;28;20550;-72
2022/12/01 08:57:34;;;;;;;14.30;9.05;;;;;;;;;;4995309;28;20042;-73
2022/12/01 09:00:00;;;;;;;9.90;7.20;;;;;;;;;;4995405;28;20018;-72
2022/12/01 09:02:26;;;;;;;12.35;7.57;;;;;;;;;;4995177;28;20097;-72
2022/12/01 09:04:52;;;;;;;14.90;7.53;;;;;;;;;;4995374;28;20030;-74
2022/12/01 09:07:19;;;;;;;12.00;8.25;;;;;;;;;;4995550;28;20045;-72
2022/12/01 09:09:46;;;;;;;18.42;8.90;;;;;;;;;;4996014;28;20026;-76
2022/12/01 09:12:12;;;;;;;13.63;7.93;;;;;;;;;;4994966;28;20035;-75
2022/12/01 09:14:39;;;;;;;16.10;9.35;;;;;;;;;;4995324;28;20084;-76
2022/12/01 09:17:06;;;;;;;10.68;6.68;;;;;;;;;;4995140;28;20370;-75
2022/12/01 09:19:32;;;;;;;20.50;11.18;;;;;;;;;;4994663;28;20046;-76
2022/12/01 09:21:58;;;;;;;19.52;11.57;;;;;;;;;;4995068;28;20034;-73
2022/12/01 09:24:24;;;;;;;17.00;10.68;;;;;;;;;;4994892;28;20026;-75
2022/12/01 09:26:53;;;;;;;15.00;8.68;;;;;;;;;;4994781;28;20117;-73
2022/12/01 09:29:19;;;;;;;22.95;11.45;;;;;;;;;;4994772;28;20034;-73
2022/12/01 09:31:46;;;;;;;17.85;10.55;;;;;;;;;;4994392;28;20030;-75
2022/12/01 09:34:13;;;;;;;14.70;8.43;;;;;;;;;;4994816;28;20026;-72
2022/12/01 09:36:39;;;;;;;25.88;11.93;;;;;;;;;;4994607;28;20480;-73
2022/12/01 09:39:07;;;;;;;15.48;9.77;;;;;;;;;;4994789;28;20027;-76
2022/12/01 09:41:42;;;;;;;17.38;10.00;;;;;;;;;;4994405;28;20027;-72
2022/12/01 09:44:19;;;;;;;14.82;9.20;;;;;;;;;;4982273;28;20073;-73
2022/12/01 09:46:52;;;;;;;13.73;8.15;;;;;;;;;;4994374;28;20026;-76
2022/12/01 09:49:21;;;;;;;17.17;9.07;;;;;;;;;;4994541;28;20097;-76
2022/12/01 09:51:48;;;;;;;15.68;11.07;;;;;;;;;;4994370;28;20050;-72
2022/12/01 09:54:14;;;;;;;21.67;11.77;;;;;;;;;;4977008;28;20066;-74
2022/12/01 09:56:49;;;;;;;13.57;7.50;;;;;;;;;;4994421;28;20074;-74
2022/12/01 09:59:26;;;;;;;14.60;9.18;;;;;;;;;;4994257;28;20031;-75
2022/12/01 10:01:58;;;;;;;16.77;9.23;;;;;;;;;;4994430;28;20461;-77
2022/12/01 10:04:41;;;;;;;20.60;13.63;;;;;;;;;;4994185;28;20022;-73
2022/12/01 10:07:19;;;;;;;18.30;11.18;;;;;;;;;;4994210;28;20026;-75
2022/12/01 10:09:56;;;;;;;10.57;7.30;;;;;;;;;;4994282;28;20031;-74
2022/12/01 10:12:26;;;;;;;22.42;14.10;;;;;;;;;;4994019;28;20038;-72
2022/12/01 10:14:53;;;;;;;24.13;10.57;;;;;;;;;;4976665;28;20042;-72
2022/12/01 10:17:19;;;;;;;15.35;9.90;;;;;;;;;;4993953;28;20026;-75
2022/12/01 10:19:51;;;;;;;20.42;12.32;;;;;;;;;;4993811;28;20046;-73
2022/12/01 10:22:17;;;;;;;59.28;32.22;;;;;;;;;;4994102;28;20026;-72
2022/12/01 10:25:06;;;;;;;40.08;21.52;;;;;;;;;;4993796;28;20034;-73
2022/12/01 10:27:38;;;;;;;28.80;17.48;;;;;;;;;;4993768;28;20519;-75
2022/12/01 10:30:08;;;;;;;11.90;7.78;;;;;;;;;;4993728;28;20388;-75
2022/12/01 10:32:34;;;;;;;12.30;7.10;;;;;;;;;;4993800;28;20388;-75
2022/12/01 10:35:00;;;;;;;15.77;8.93;;;;;;;;;;4993470;28;20531;-72
2022/12/01 10:37:27;;;;;;;21.15;10.95;;;;;;;;;;4993693;28;20030;-72
2022/12/01 10:39:54;;;;;;;27.90;16.25;;;;;;;;;;4993478;28;20026;-72
2022/12/01 10:42:39;;;;;;;22.17;15.30;;;;;;;;;;4992991;28;20034;-71
2022/12/01 10:45:07;;;;;;;22.58;10.43;;;;;;;;;;4993503;28;20034;-72
2022/12/01 10:47:33;;;;;;;20.45;12.15;;;;;;;;;;4993524;28;20023;-72
2022/12/01 10:49:59;;;;;;;19.35;10.88;;;;;;;;;;4993372;28;20038;-76
2022/12/01 10:52:34;;;;;;;12.48;7.88;;;;;;;;;;4993384;28;20019;-73
2022/12/01 10:55:01;;;;;;;21.27;11.05;;;;;;;;;;4993920;28;20062;-75
2022/12/01 10:57:28;;;;;;;15.07;10.55;;;;;;;;;;4993210;28;20031;-75
2022/12/01 11:00:01;;;;;;;21.65;12.77;;;;;;;;;;4992009;28;20049;-74
2022/12/01 11:02:27;;;;;;;21.23;13.25;;;;;;;;;;4993157;28;20028;-73
2022/12/01 11:05:01;;;;;;;20.02;12.57;;;;;;;;;;4993366;28;20023;-72
2022/12/01 11:07:29;;;;;;;16.60;7.72;;;;;;;;;;4993395;28;20022;-74
2022/12/01 11:10:10;;;;;;;13.18;8.77;;;;;;;;;;4975822;28;20381;-72
2022/12/01 11:12:36;;;;;;;12.52;9.27;;;;;;;;;;4993305;28;20026;-72
2022/12/01 11:15:04;;;;;;;42.42;22.75;;;;;;;;;;4993258;28;20342;-75
2022/12/01 11:17:30;;;;;;;41.10;24.08;;;;;;;;;;4993011;28;20038;-75
2022/12/01 11:19:56;;;;;;;30.00;19.75;;;;;;;;;;4992921;28;20060;-76
2022/12/01 11:22:26;;;;;;;27.05;19.58;;;;;;;;;;4993210;28;20027;-74
2022/12/01 11:24:52;;;;;;;21.48;14.82;;;;;;;;;;4989754;28;20201;-74
2022/12/01 11:27:20;;;;;;;17.45;9.68;;;;;;;;;;4993420;28;20350;-75
2022/12/01 11:29:48;;;;;;;18.13;12.43;;;;;;;;;;4993147;28;20033;-75
2022/12/01 11:32:28;;;;;;;17.65;14.25;;;;;;;;;;4993206;28;20026;-74
2022/12/01 11:35:17;;;;;;;21.02;11.55;;;;;;;;;;4992889;28;20027;-74
2022/12/01 11:37:49;;;;;;;14.90;10.13;;;;;;;;;;4895532;29;20052;-75
2022/12/01 11:40:15;;;;;;;24.80;16.55;;;;;;;;;;4895160;29;20446;-75
2022/12/01 11:42:43;;;;;;;17.30;11.63;;;;;;;;;;4895526;29;20081;-74
2022/12/01 11:45:31;;;;;;;13.55;8.65;;;;;;;;;;4895102;29;20032;-75
2022/12/01 11:48:05;;;;;;;12.10;8.80;;;;;;;;;;4895052;29;20503;-75
2022/12/01 11:50:34;;;;;;;13.27;6.80;;;;;;;;;;4895031;29;20100;-75
2022/12/01 11:53:00;;;;;;;11.15;6.40;;;;;;;;;;4895664;29;20033;-75
2022/12/01 11:55:27;;;;;;;13.68;7.90;;;;;;;;;;4898670;29;20040;-75
2022/12/01 11:57:55;;;;;;;14.07;8.57;;;;;;;;;;4898792;29;20092;-75
2022/12/01 12:00:22;;;;;;;11.93;8.45;;;;;;;;;;4898736;29;20111;-75
2022/12/01 12:02:58;;;;;;;26.58;14.45;;;;;;;;;;4898526;29;20037;-72
2022/12/01 12:05:24;;;;;;;17.58;10.32;;;;;;;;;;4898530;29;20029;-76
2022/12/01 12:08:09;;;;;;;15.60;8.75;;;;;;;;;;4898772;29;20375;-72
2022/12/01 12:10:49;;;;;;;22.00;13.60;;;;;;;;;;4898408;29;20479;-72
2022/12/01 12:13:15;;;;;;;24.30;13.55;;;;;;;;;;4898343;29;20032;-74
2022/12/01 12:15:41;;;;;;;18.88;13.25;;;;;;;;;;4984223;28;20049;-72
2022/12/01 12:18:13;;;;;;;19.55;11.23;;;;;;;;;;4995973;28;20447;-72
2022/12/01 12:20:39;;;;;;;22.10;11.98;;;;;;;;;;4995870;28;20027;-72
2022/12/01 12:23:11;;;;;;;21.70;12.82;;;;;;;;;;4996051;28;20026;-76
2022/12/01 12:25:41;;;;;;;14.60;8.65;;;;;;;;;;4996036;28;20388;-75
2022/12/01 12:28:13;;;;;;;16.55;10.13;;;;;;;;;;4995995;28;20033;-75
2022/12/01 12:30:46;;;;;;;16.70;10.38;;;;;;;;;;4996023;28;20026;-74
2022/12/01 12:33:22;;;;;;;23.92;14.68;;;;;;;;;;4995767;28;20030;-72
2022/12/01 12:35:49;;;;;;;23.42;13.93;;;;;;;;;;4995867;28;20085;-73
2022/12/01 12:38:31;;;;;;;23.77;12.95;;;;;;;;;;4995818;28;20168;-72
2022/12/01 12:41:08;;;;;;;27.45;15.55;;;;;;;;;;4978326;28;20489;-77
2022/12/01 12:43:53;;;;;;;23.35;13.25;;;;;;;;;;4995743;28;20022;-72
2022/12/01 12:46:28;;;;;;;29.73;16.67;;;;;;;;;;4995924;28;20034;-75
2022/12/01 12:48:57;;;;;;;21.65;12.93;;;;;;;;;;4995654;28;20051;-75
2022/12/01 12:51:42;;;;;;;20.20;10.13;;;;;;;;;;4995641;28;20357;-75
2022/12/01 12:54:11;;;;;;;20.60;13.50;;;;;;;;;;4995557;28;20084;-72
2022/12/01 12:56:40;;;;;;;22.45;15.35;;;;;;;;;;4995676;28;20080;-72
2022/12/01 12:59:09;;;;;;;17.02;10.75;;;;;;;;;;4995319;28;20389;-74
2022/12/01 13:01:41;;;;;;;55.38;29.77;;;;;;;;;;4995369;28;20496;-73
2022/12/01 13:04:10;;;;;;;71.80;37.65;;;;;;;;;;4995148;28;20061;-72
2022/12/01 13:06:38;;;;;;;16.67;9.48;;;;;;;;;;4994848;28;20025;-73
2022/12/01 13:09:04;;;;;;;19.38;11.75;;;;;;;;;;4995280;28;20023;-72
2022/12/01 13:11:36;;;;;;;20.58;13.10;;;;;;;;;;4995219;28;20026;-74
2022/12/01 13:14:11;;;;;;;40.80;21.45;;;;;;;;;;4995180;28;20041;-74
2022/12/01 13:16:39;;;;;;;21.70;14.60;;;;;;;;;;4994917;28;20193;-76
2022/12/01 13:19:14;;;;;;;47.35;27.23;;;;;;;;;;4994421;28;20054;-75
2022/12/01 13:21:42;;;;;;;58.55;28.90;;;;;;;;;;4977420;28;20542;-76
2022/12/01 13:24:12;;;;;;;24.48;16.25;;;;;;;;;;4995161;28;20034;-75
2022/12/01 13:26:39;;;;;;;30.95;19.10;;;;;;;;;;4994744;28;20104;-75
2022/12/01 13:29:06;;;;;;;19.60;12.02;;;;;;;;;;4995247;28;20021;-75
2022/12/01 13:31:47;;;;;;;25.30;17.88;;;;;;;;;;4977227;28;20466;-74
2022/12/01 13:34:28;;;;;;;24.50;14.40;;;;;;;;;;4994837;28;20030;-76
2022/12/01 13:36:55;;;;;;;30.75;19.30;;;;;;;;;;4994735;28;20022;-73
2022/12/01 13:39:26;;;;;;;29.50;18.98;;;;;;;;;;4995343;28;20033;-73
2022/12/01 13:42:15;;;;;;;28.88;18.73;;;;;;;;;;4994478;28;20121;-76
2022/12/01 13:44:43;;;;;;;25.10;15.90;;;;;;;;;;4982266;28;20579;-72
2022/12/01 13:47:09;;;;;;;20.13;12.13;;;;;;;;;;4994728;28;20479;-75
2022/12/01 13:49:39;;;;;;;15.88;10.57;;;;;;;;;;4994508;28;20022;-73
2022/12/01 13:52:20;;;;;;;27.13;14.75;;;;;;;;;;4994394;28;20100;-73
2022/12/01 13:55:05;;;;;;;24.13;14.02;;;;;;;;;;4994186;28;20026;-76
2022/12/01 13:57:32;;;;;;;23.25;15.77;;;;;;;;;;4994368;28;20030;-72
2022/12/01 13:59:58;;;;;;;18.63;13.68;;;;;;;;;;4994321;28;20026;-74
2022/12/01 14:02:25;;;;;;;20.17;14.20;;;;;;;;;;4994262;28;20027;-76
2022/12/01 14:04:51;;;;;;;23.17;16.60;;;;;;;;;;4994015;28;20492;-75
2022/12/01 14:07:31;;;;;;;24.80;17.40;;;;;;;;;;4994168;28;20026;-75
2022/12/01 14:10:07;;;;;;;26.35;15.45;;;;;;;;;;4994097;28;20022;-76
2022/12/01 14:12:36;;;;;;;57.78;33.80;;;;;;;;;;4993899;28;20444;-75
2022/12/01 14:15:20;;;;;;;69.72;39.75;;;;;;;;;;4994365;28;20018;-72
2022/12/01 14:17:46;;;;;;;42.50;27.52;;;;;;;;;;4992614;28;20999;-73
2022/12/01 14:20:13;;;;;;;51.00;36.42;;;;;;;;;;4993959;28;20391;-75
2022/12/01 14:22:42;;;;;;;40.58;30.27;;;;;;;;;;4976301;28;20018;-74
2022/12/01 14:25:21;;;;;;;35.17;26.02;;;;;;;;;;4993713;28;20022;-75
2022/12/01 14:28:07;;;;;;;24.67;14.52;;;;;;;;;;4994294;28;20038;-75
2022/12/01 14:33:24;;;;;;;26.63;18.15;;;;;;;;;;4994152;28;20030;-72
2022/12/01 14:35:50;;;;;;;25.80;17.02;;;;;;;;;;4993473;28;20030;-72
2022/12/01 14:38:16;;;;;;;75.10;48.65;;;;;;;;;;4993459;28;20030;-74
2022/12/01 14:40:43;;;;;;;54.72;36.08;;;;;;;;;;4993436;28;20097;-75
2022/12/01 14:46:02;;;;;;;46.72;34.90;;;;;;;;;;4993844;28;20088;-75
2022/12/01 14:48:37;;;;;;;54.47;36.10;;;;;;;;;;4993490;28;20384;-75